sensor_id;sensor_type;location;lat;lon;timestamp;P1;durP1;ratioP1;P2;durP2;ratioP2
2011;SDS011;1009;51.436;6.972;2024-02-21T00:01:21;21.20;;;8.27;;
2011;SDS011;1009;51.436;6.972;2024-02-21T00:03:48;20.83;;;8.87;;
2011;SDS011;1009;51.436;6.972;2024-02-21T00:06:15;19.03;;;10.33;;
2011;SDS011;1009;51.436;6.972;2024-02-21T00:08:43;13.37;;;7.70;;
2011;SDS011;1009;51.436;6.972;2024-02-21T00:11:10;24.13;;;10.40;;
2011;SDS011;1009;51.436;6.972;2024-02-21T00:13:36;21.53;;;9.67;;
2011;SDS011;1009;51.436;6.972;2024-02-21T00:16:03;21.53;;;10.30;;
2011;SDS011;1009;51.436;6.972;2024-02-21T00:18:30;19.87;;;9.17;;
2011;SDS011;1009;51.436;6.972;2024-02-21T00:20:57;24.67;;;9.10;;
2011;SDS011;1009;51.436;6.972;2024-02-21T00:23:26;18.57;;;8.60;;
2011;SDS011;1009;51.436;6.972;2024-02-21T00:25:54;21.70;;;12.00;;
2011;SDS011;1009;51.436;6.972;2024-02-21T00:28:20;20.70;;;8.73;;
2011;SDS011;1009;51.436;6.972;2024-02-21T00:30:47;26.90;;;10.90;;
2011;SDS011;1009;51.436;6.972;2024-02-21T00:33:15;16.50;;;8.97;;
2011;SDS011;1009;51.436;6.972;2024-02-21T00:35:42;27.43;;;9.30;;
2011;SDS011;1009;51.436;6.972;2024-02-21T00:38:09;22.53;;;9.97;;
2011;SDS011;1009;51.436;6.972;2024-02-21T00:40:35;20.03;;;10.43;;
2011;SDS011;1009;51.436;6.972;2024-02-21T00:43:04;20.73;;;11.57;;
2011;SDS011;1009;51.436;6.972;2024-02-21T00:45:30;18.90;;;9.60;;
2011;SDS011;1009;51.436;6.972;2024-02-21T00:47:59;23.83;;;11.70;;
2011;SDS011;1009;51.436;6.972;2024-02-21T00:50:25;22.80;;;12.03;;
2011;SDS011;1009;51.436;6.972;2024-02-21T00:52:52;26.87;;;11.70;;
2011;SDS011;1009;51.436;6.972;2024-02-21T00:55:19;26.20;;;10.53;;
2011;SDS011;1009;51.436;6.972;2024-02-21T00:57:45;26.03;;;11.27;;
2011;SDS011;1009;51.436;6.972;2024-02-21T01:00:14;24.63;;;9.43;;
2011;SDS011;1009;51.436;6.972;2024-02-21T01:02:41;23.67;;;9.13;;
2011;SDS011;1009;51.436;6.972;2024-02-21T01:05:08;23.63;;;10.87;;
2011;SDS011;1009;51.436;6.972;2024-02-21T01:07:35;22.60;;;10.53;;
2011;SDS011;1009;51.436;6.972;2024-02-21T01:10:02;20.40;;;10.27;;
2011;SDS011;1009;51.436;6.972;2024-02-21T01:12:29;22.47;;;10.50;;
2011;SDS011;1009;51.436;6.972;2024-02-21T01:14:55;19.43;;;11.03;;
2011;SDS011;1009;51.436;6.972;2024-02-21T01:17:23;19.33;;;10.50;;
2011;SDS011;1009;51.436;6.972;2024-02-21T01:19:50;19.93;;;9.33;;
2011;SDS011;1009;51.436;6.972;2024-02-21T01:22:17;25.80;;;11.87;;
2011;SDS011;1009;51.436;6.972;2024-02-21T01:24:44;20.80;;;10.80;;
2011;SDS011;1009;51.436;6.972;2024-02-21T01:27:10;16.20;;;9.60;;
2011;SDS011;1009;51.436;6.972;2024-02-21T01:29:37;24.20;;;11.43;;
2011;SDS011;1009;51.436;6.972;2024-02-21T01:32:04;19.47;;;11.20;;
2011;SDS011;1009;51.436;6.972;2024-02-21T01:34:32;21.20;;;10.83;;
2011;SDS011;1009;51.436;6.972;2024-02-21T01:36:59;23.57;;;10.00;;
2011;SDS011;1009;51.436;6.972;2024-02-21T01:39:29;15.33;;;9.70;;
2011;SDS011;1009;51.436;6.972;2024-02-21T01:41:56;19.50;;;9.70;;
2011;SDS011;1009;51.436;6.972;2024-02-21T01:44:23;21.27;;;9.40;;
2011;SDS011;1009;51.436;6.972;2024-02-21T01:46:50;19.70;;;9.90;;
2011;SDS011;1009;51.436;6.972;2024-02-21T01:49:17;22.33;;;9.53;;
2011;SDS011;1009;51.436;6.972;2024-02-21T01:51:46;17.17;;;10.50;;
2011;SDS011;1009;51.436;6.972;2024-02-21T01:54:13;29.83;;;10.80;;
2011;SDS011;1009;51.436;6.972;2024-02-21T01:56:40;20.37;;;9.87;;
2011;SDS011;1009;51.436;6.972;2024-02-21T01:59:07;21.93;;;11.33;;
2011;SDS011;1009;51.436;6.972;2024-02-21T02:01:34;23.33;;;11.07;;
2011;SDS011;1009;51.436;6.972;2024-02-21T02:04:01;23.20;;;11.30;;
2011;SDS011;1009;51.436;6.972;2024-02-21T02:06:30;22.23;;;10.77;;
2011;SDS011;1009;51.436;6.972;2024-02-21T02:08:58;21.93;;;10.17;;
2011;SDS011;1009;51.436;6.972;2024-02-21T02:11:25;16.03;;;9.57;;
2011;SDS011;1009;51.436;6.972;2024-02-21T02:13:52;22.10;;;9.73;;
2011;SDS011;1009;51.436;6.972;2024-02-21T02:16:19;16.97;;;9.67;;
2011;SDS011;1009;51.436;6.972;2024-02-21T02:18:46;13.13;;;8.13;;
2011;SDS011;1009;51.436;6.972;2024-02-21T02:21:13;13.67;;;9.20;;
2011;SDS011;1009;51.436;6.972;2024-02-21T02:23:50;21.73;;;10.23;;
2011;SDS011;1009;51.436;6.972;2024-02-21T02:26:17;18.43;;;10.10;;
2011;SDS011;1009;51.436;6.972;2024-02-21T02:28:44;20.67;;;10.33;;
2011;SDS011;1009;51.436;6.972;2024-02-21T02:31:11;22.67;;;10.67;;
2011;SDS011;1009;51.436;6.972;2024-02-21T02:33:37;19.50;;;10.60;;
2011;SDS011;1009;51.436;6.972;2024-02-21T02:36:05;21.10;;;13.50;;
2011;SDS011;1009;51.436;6.972;2024-02-21T02:38:32;24.23;;;10.83;;
2011;SDS011;1009;51.436;6.972;2024-02-21T02:41:00;21.83;;;10.07;;
2011;SDS011;1009;51.436;6.972;2024-02-21T02:43:26;19.13;;;9.50;;
2011;SDS011;1009;51.436;6.972;2024-02-21T02:45:53;20.20;;;10.10;;
2011;SDS011;1009;51.436;6.972;2024-02-21T02:48:20;23.43;;;10.40;;
2011;SDS011;1009;51.436;6.972;2024-02-21T02:50:47;22.67;;;10.40;;
2011;SDS011;1009;51.436;6.972;2024-02-21T02:53:14;16.27;;;10.60;;
2011;SDS011;1009;51.436;6.972;2024-02-21T02:55:41;19.63;;;10.93;;
2011;SDS011;1009;51.436;6.972;2024-02-21T02:58:09;22.80;;;10.33;;
2011;SDS011;1009;51.436;6.972;2024-02-21T03:00:36;21.60;;;11.13;;
2011;SDS011;1009;51.436;6.972;2024-02-21T03:03:04;18.03;;;10.40;;
2011;SDS011;1009;51.436;6.972;2024-02-21T03:05:31;19.93;;;10.03;;
2011;SDS011;1009;51.436;6.972;2024-02-21T03:07:57;20.47;;;11.20;;
2011;SDS011;1009;51.436;6.972;2024-02-21T03:10:24;22.33;;;11.07;;
2011;SDS011;1009;51.436;6.972;2024-02-21T03:12:51;20.30;;;10.70;;
2011;SDS011;1009;51.436;6.972;2024-02-21T03:15:20;16.63;;;9.40;;
2011;SDS011;1009;51.436;6.972;2024-02-21T03:17:47;17.10;;;10.13;;
2011;SDS011;1009;51.436;6.972;2024-02-21T03:20:13;20.83;;;11.03;;
2011;SDS011;1009;51.436;6.972;2024-02-21T03:22:41;17.70;;;10.10;;
2011;SDS011;1009;51.436;6.972;2024-02-21T03:25:08;17.80;;;10.50;;
2011;SDS011;1009;51.436;6.972;2024-02-21T03:27:35;24.43;;;10.90;;
2011;SDS011;1009;51.436;6.972;2024-02-21T03:30:02;17.37;;;10.23;;
2011;SDS011;1009;51.436;6.972;2024-02-21T03:32:31;17.20;;;9.77;;
2011;SDS011;1009;51.436;6.972;2024-02-21T03:34:58;17.40;;;8.57;;
2011;SDS011;1009;51.436;6.972;2024-02-21T03:37:25;19.60;;;9.60;;
2011;SDS011;1009;51.436;6.972;2024-02-21T03:39:52;17.07;;;9.30;;
2011;SDS011;1009;51.436;6.972;2024-02-21T03:42:18;18.83;;;9.30;;
2011;SDS011;1009;51.436;6.972;2024-02-21T03:44:45;22.43;;;10.37;;
2011;SDS011;1009;51.436;6.972;2024-02-21T03:47:12;21.80;;;9.00;;
2011;SDS011;1009;51.436;6.972;2024-02-21T03:49:40;24.17;;;10.63;;
2011;SDS011;1009;51.436;6.972;2024-02-21T03:52:07;19.50;;;9.87;;
2011;SDS011;1009;51.436;6.972;2024-02-21T03:54:34;18.47;;;9.90;;
2011;SDS011;1009;51.436;6.972;2024-02-21T03:57:00;21.10;;;9.47;;
2011;SDS011;1009;51.436;6.972;2024-02-21T03:59:28;14.67;;;9.40;;
2011;SDS011;1009;51.436;6.972;2024-02-21T04:01:54;14.70;;;9.20;;
2011;SDS011;1009;51.436;6.972;2024-02-21T04:04:21;16.80;;;9.60;;
2011;SDS011;1009;51.436;6.972;2024-02-21T04:06:49;18.70;;;9.37;;
2011;SDS011;1009;51.436;6.972;2024-02-21T04:09:16;15.87;;;9.13;;
2011;SDS011;1009;51.436;6.972;2024-02-21T04:11:43;15.87;;;8.50;;
2011;SDS011;1009;51.436;6.972;2024-02-21T04:14:10;23.00;;;10.07;;
2011;SDS011;1009;51.436;6.972;2024-02-21T04:16:37;19.57;;;9.30;;
2011;SDS011;1009;51.436;6.972;2024-02-21T04:19:04;15.90;;;9.10;;
2011;SDS011;1009;51.436;6.972;2024-02-21T04:21:31;19.30;;;8.47;;
2011;SDS011;1009;51.436;6.972;2024-02-21T04:23:59;14.77;;;7.57;;
2011;SDS011;1009;51.436;6.972;2024-02-21T04:26:26;20.73;;;9.00;;
2011;SDS011;1009;51.436;6.972;2024-02-21T04:28:53;13.77;;;7.50;;
2011;SDS011;1009;51.436;6.972;2024-02-21T04:31:20;15.97;;;9.13;;
2011;SDS011;1009;51.436;6.972;2024-02-21T04:33:47;18.67;;;8.83;;
2011;SDS011;1009;51.436;6.972;2024-02-21T04:36:14;17.33;;;7.97;;
2011;SDS011;1009;51.436;6.972;2024-02-21T04:38:40;17.60;;;8.50;;
2011;SDS011;1009;51.436;6.972;2024-02-21T04:41:08;20.13;;;8.00;;
2011;SDS011;1009;51.436;6.972;2024-02-21T04:43:36;12.20;;;7.97;;
2011;SDS011;1009;51.436;6.972;2024-02-21T04:46:02;18.60;;;8.67;;
2011;SDS011;1009;51.436;6.972;2024-02-21T04:48:30;15.57;;;7.93;;
2011;SDS011;1009;51.436;6.972;2024-02-21T04:50:57;14.20;;;8.23;;
2011;SDS011;1009;51.436;6.972;2024-02-21T04:53:24;12.80;;;7.27;;
2011;SDS011;1009;51.436;6.972;2024-02-21T04:55:50;15.03;;;7.53;;
2011;SDS011;1009;51.436;6.972;2024-02-21T04:58:18;12.97;;;7.30;;
2011;SDS011;1009;51.436;6.972;2024-02-21T05:00:45;13.00;;;7.43;;
2011;SDS011;1009;51.436;6.972;2024-02-21T05:03:12;12.10;;;7.97;;
2011;SDS011;1009;51.436;6.972;2024-02-21T05:05:39;16.90;;;7.63;;
2011;SDS011;1009;51.436;6.972;2024-02-21T05:08:05;15.03;;;7.60;;
2011;SDS011;1009;51.436;6.972;2024-02-21T05:10:32;14.03;;;8.00;;
2011;SDS011;1009;51.436;6.972;2024-02-21T05:12:59;17.10;;;8.10;;
2011;SDS011;1009;51.436;6.972;2024-02-21T05:15:27;16.33;;;8.17;;
2011;SDS011;1009;51.436;6.972;2024-02-21T05:17:54;15.60;;;8.43;;
2011;SDS011;1009;51.436;6.972;2024-02-21T05:20:20;12.43;;;7.40;;
2011;SDS011;1009;51.436;6.972;2024-02-21T05:22:47;18.90;;;7.03;;
2011;SDS011;1009;51.436;6.972;2024-02-21T05:25:16;15.57;;;7.30;;
2011;SDS011;1009;51.436;6.972;2024-02-21T05:27:43;10.67;;;7.17;;
2011;SDS011;1009;51.436;6.972;2024-02-21T05:30:11;15.70;;;7.50;;
2011;SDS011;1009;51.436;6.972;2024-02-21T05:32:39;12.83;;;7.63;;
2011;SDS011;1009;51.436;6.972;2024-02-21T05:35:06;8.77;;;6.73;;
2011;SDS011;1009;51.436;6.972;2024-02-21T05:37:33;13.23;;;7.17;;
2011;SDS011;1009;51.436;6.972;2024-02-21T05:40:00;14.23;;;7.20;;
2011;SDS011;1009;51.436;6.972;2024-02-21T05:42:27;10.40;;;6.90;;
2011;SDS011;1009;51.436;6.972;2024-02-21T05:44:53;16.87;;;7.73;;
2011;SDS011;1009;51.436;6.972;2024-02-21T05:47:20;13.67;;;6.47;;
2011;SDS011;1009;51.436;6.972;2024-02-21T05:49:48;12.03;;;6.80;;
2011;SDS011;1009;51.436;6.972;2024-02-21T05:52:18;12.17;;;6.10;;
2011;SDS011;1009;51.436;6.972;2024-02-21T05:54:45;8.77;;;5.60;;
2011;SDS011;1009;51.436;6.972;2024-02-21T05:57:12;13.70;;;7.57;;
2011;SDS011;1009;51.436;6.972;2024-02-21T05:59:38;9.63;;;6.60;;
2011;SDS011;1009;51.436;6.972;2024-02-21T06:02:07;11.80;;;5.63;;
2011;SDS011;1009;51.436;6.972;2024-02-21T06:04:33;11.30;;;6.73;;
2011;SDS011;1009;51.436;6.972;2024-02-21T06:07:01;11.00;;;6.50;;
2011;SDS011;1009;51.436;6.972;2024-02-21T06:09:29;14.40;;;6.60;;
2011;SDS011;1009;51.436;6.972;2024-02-21T06:11:56;12.93;;;7.37;;
2011;SDS011;1009;51.436;6.972;2024-02-21T06:14:23;14.40;;;5.90;;
2011;SDS011;1009;51.436;6.972;2024-02-21T06:16:50;14.63;;;6.47;;
2011;SDS011;1009;51.436;6.972;2024-02-21T06:19:16;12.53;;;6.50;;
2011;SDS011;1009;51.436;6.972;2024-02-21T06:21:43;9.33;;;5.73;;
2011;SDS011;1009;51.436;6.972;2024-02-21T06:24:11;16.53;;;7.20;;
2011;SDS011;1009;51.436;6.972;2024-02-21T06:26:38;12.80;;;6.00;;
2011;SDS011;1009;51.436;6.972;2024-02-21T06:29:06;11.27;;;6.50;;
2011;SDS011;1009;51.436;6.972;2024-02-21T06:31:33;12.70;;;6.30;;
2011;SDS011;1009;51.436;6.972;2024-02-21T06:34:01;11.10;;;6.00;;
2011;SDS011;1009;51.436;6.972;2024-02-21T06:36:28;10.30;;;6.00;;
2011;SDS011;1009;51.436;6.972;2024-02-21T06:38:54;7.60;;;5.67;;
2011;SDS011;1009;51.436;6.972;2024-02-21T06:41:22;16.03;;;6.47;;
2011;SDS011;1009;51.436;6.972;2024-02-21T06:43:49;11.00;;;5.83;;
2011;SDS011;1009;51.436;6.972;2024-02-21T06:46:22;7.00;;;5.20;;
2011;SDS011;1009;51.436;6.972;2024-02-21T06:48:50;14.63;;;6.23;;
2011;SDS011;1009;51.436;6.972;2024-02-21T06:51:17;16.43;;;6.70;;
2011;SDS011;1009;51.436;6.972;2024-02-21T06:53:44;8.67;;;5.73;;
2011;SDS011;1009;51.436;6.972;2024-02-21T06:56:10;9.97;;;6.07;;
2011;SDS011;1009;51.436;6.972;2024-02-21T06:58:39;8.40;;;4.60;;
2011;SDS011;1009;51.436;6.972;2024-02-21T07:01:06;10.47;;;5.57;;
2011;SDS011;1009;51.436;6.972;2024-02-21T07:03:33;9.63;;;5.13;;
2011;SDS011;1009;51.436;6.972;2024-02-21T07:06:00;9.00;;;5.60;;
2011;SDS011;1009;51.436;6.972;2024-02-21T07:08:27;11.10;;;4.47;;
2011;SDS011;1009;51.436;6.972;2024-02-21T07:10:54;10.03;;;4.73;;
2011;SDS011;1009;51.436;6.972;2024-02-21T07:13:20;6.77;;;4.90;;
2011;SDS011;1009;51.436;6.972;2024-02-21T07:15:49;16.53;;;6.23;;
2011;SDS011;1009;51.436;6.972;2024-02-21T07:18:15;8.00;;;4.97;;
2011;SDS011;1009;51.436;6.972;2024-02-21T07:20:42;8.80;;;5.37;;
2011;SDS011;1009;51.436;6.972;2024-02-21T07:23:09;14.80;;;6.50;;
2011;SDS011;1009;51.436;6.972;2024-02-21T07:25:36;11.80;;;7.07;;
2011;SDS011;1009;51.436;6.972;2024-02-21T07:28:03;10.97;;;4.90;;
2011;SDS011;1009;51.436;6.972;2024-02-21T07:30:30;10.50;;;5.30;;
2011;SDS011;1009;51.436;6.972;2024-02-21T07:32:58;8.30;;;5.43;;
2011;SDS011;1009;51.436;6.972;2024-02-21T07:35:25;10.13;;;5.17;;
2011;SDS011;1009;51.436;6.972;2024-02-21T07:37:52;17.97;;;6.27;;
2011;SDS011;1009;51.436;6.972;2024-02-21T07:40:18;9.93;;;5.97;;
2011;SDS011;1009;51.436;6.972;2024-02-21T07:42:45;10.93;;;3.90;;
2011;SDS011;1009;51.436;6.972;2024-02-21T07:45:12;9.40;;;5.27;;
2011;SDS011;1009;51.436;6.972;2024-02-21T07:47:39;11.73;;;5.07;;
2011;SDS011;1009;51.436;6.972;2024-02-21T07:50:08;8.73;;;5.13;;
2011;SDS011;1009;51.436;6.972;2024-02-21T07:52:35;9.73;;;4.60;;
2011;SDS011;1009;51.436;6.972;2024-02-21T07:55:01;11.03;;;5.40;;
2011;SDS011;1009;51.436;6.972;2024-02-21T07:57:28;9.53;;;4.70;;
2011;SDS011;1009;51.436;6.972;2024-02-21T07:59:55;9.23;;;5.17;;
2011;SDS011;1009;51.436;6.972;2024-02-21T08:02:22;12.07;;;5.67;;
2011;SDS011;1009;51.436;6.972;2024-02-21T08:04:49;10.20;;;4.70;;
2011;SDS011;1009;51.436;6.972;2024-02-21T08:07:17;12.03;;;5.03;;
2011;SDS011;1009;51.436;6.972;2024-02-21T08:09:43;8.17;;;4.10;;
2011;SDS011;1009;51.436;6.972;2024-02-21T08:12:10;9.07;;;4.83;;
2011;SDS011;1009;51.436;6.972;2024-02-21T08:14:37;8.63;;;4.40;;
2011;SDS011;1009;51.436;6.972;2024-02-21T08:17:03;8.87;;;4.60;;
2011;SDS011;1009;51.436;6.972;2024-02-21T08:19:30;5.23;;;3.13;;
2011;SDS011;1009;51.436;6.972;2024-02-21T08:21:57;6.87;;;3.27;;
2011;SDS011;1009;51.436;6.972;2024-02-21T08:24:25;10.83;;;4.47;;
2011;SDS011;1009;51.436;6.972;2024-02-21T08:26:52;11.90;;;4.77;;
2011;SDS011;1009;51.436;6.972;2024-02-21T08:29:19;11.37;;;5.53;;
2011;SDS011;1009;51.436;6.972;2024-02-21T08:31:46;8.10;;;5.07;;
2011;SDS011;1009;51.436;6.972;2024-02-21T08:34:12;10.30;;;4.77;;
2011;SDS011;1009;51.436;6.972;2024-02-21T08:36:40;6.27;;;4.30;;
2011;SDS011;1009;51.436;6.972;2024-02-21T08:39:06;12.37;;;4.93;;
2011;SDS011;1009;51.436;6.972;2024-02-21T08:41:35;8.40;;;4.20;;
2011;SDS011;1009;51.436;6.972;2024-02-21T08:44:03;9.30;;;5.00;;
2011;SDS011;1009;51.436;6.972;2024-02-21T08:46:30;7.27;;;4.13;;
2011;SDS011;1009;51.436;6.972;2024-02-21T08:48:57;10.93;;;4.80;;
2011;SDS011;1009;51.436;6.972;2024-02-21T08:51:23;8.47;;;4.50;;
2011;SDS011;1009;51.436;6.972;2024-02-21T08:53:51;9.00;;;3.87;;
2011;SDS011;1009;51.436;6.972;2024-02-21T08:56:18;12.67;;;5.63;;
2011;SDS011;1009;51.436;6.972;2024-02-21T08:58:46;9.13;;;4.33;;
2011;SDS011;1009;51.436;6.972;2024-02-21T09:01:13;13.60;;;4.93;;
2011;SDS011;1009;51.436;6.972;2024-02-21T09:03:40;10.97;;;4.93;;
2011;SDS011;1009;51.436;6.972;2024-02-21T09:06:07;4.73;;;3.77;;
2011;SDS011;1009;51.436;6.972;2024-02-21T09:08:35;17.13;;;5.23;;
2011;SDS011;1009;51.436;6.972;2024-02-21T09:11:02;9.90;;;4.73;;
2011;SDS011;1009;51.436;6.972;2024-02-21T09:13:29;6.77;;;4.27;;
2011;SDS011;1009;51.436;6.972;2024-02-21T09:15:57;8.60;;;4.77;;
2011;SDS011;1009;51.436;6.972;2024-02-21T09:18:24;9.23;;;4.23;;
2011;SDS011;1009;51.436;6.972;2024-02-21T09:20:51;7.00;;;4.33;;
2011;SDS011;1009;51.436;6.972;2024-02-21T09:23:17;6.43;;;4.40;;
2011;SDS011;1009;51.436;6.972;2024-02-21T09:25:44;9.37;;;3.37;;
2011;SDS011;1009;51.436;6.972;2024-02-21T09:28:12;9.70;;;4.13;;
2011;SDS011;1009;51.436;6.972;2024-02-21T09:30:39;10.93;;;4.33;;
2011;SDS011;1009;51.436;6.972;2024-02-21T09:33:07;7.80;;;3.47;;
2011;SDS011;1009;51.436;6.972;2024-02-21T09:35:33;7.13;;;3.70;;
2011;SDS011;1009;51.436;6.972;2024-02-21T09:38:01;5.87;;;3.00;;
2011;SDS011;1009;51.436;6.972;2024-02-21T09:40:27;9.40;;;4.47;;
2011;SDS011;1009;51.436;6.972;2024-02-21T09:42:57;7.30;;;3.23;;
2011;SDS011;1009;51.436;6.972;2024-02-21T09:45:31;10.03;;;3.23;;
2011;SDS011;1009;51.436;6.972;2024-02-21T09:50:56;4.57;;;2.77;;
2011;SDS011;1009;51.436;6.972;2024-02-21T09:53:25;9.73;;;3.07;;
2011;SDS011;1009;51.436;6.972;2024-02-21T09:55:53;11.23;;;3.50;;
2011;SDS011;1009;51.436;6.972;2024-02-21T09:58:21;7.40;;;3.50;;
2011;SDS011;1009;51.436;6.972;2024-02-21T10:00:51;4.27;;;3.17;;
2011;SDS011;1009;51.436;6.972;2024-02-21T10:03:18;5.60;;;3.80;;
2011;SDS011;1009;51.436;6.972;2024-02-21T10:05:47;12.30;;;5.13;;
2011;SDS011;1009;51.436;6.972;2024-02-21T10:08:15;9.00;;;3.87;;
2011;SDS011;1009;51.436;6.972;2024-02-21T10:10:43;6.63;;;4.00;;
2011;SDS011;1009;51.436;6.972;2024-02-21T10:13:10;5.90;;;4.20;;
2011;SDS011;1009;51.436;6.972;2024-02-21T10:15:37;12.23;;;5.17;;
2011;SDS011;1009;51.436;6.972;2024-02-21T10:18:04;12.00;;;4.93;;
2011;SDS011;1009;51.436;6.972;2024-02-21T10:20:31;10.17;;;4.83;;
2011;SDS011;1009;51.436;6.972;2024-02-21T10:23:03;9.67;;;5.60;;
2011;SDS011;1009;51.436;6.972;2024-02-21T10:25:33;6.10;;;3.07;;
2011;SDS011;1009;51.436;6.972;2024-02-21T10:28:00;7.07;;;3.87;;
2011;SDS011;1009;51.436;6.972;2024-02-21T10:30:27;6.53;;;3.57;;
2011;SDS011;1009;51.436;6.972;2024-02-21T10:32:54;9.17;;;4.10;;
2011;SDS011;1009;51.436;6.972;2024-02-21T10:35:26;6.20;;;3.03;;
2011;SDS011;1009;51.436;6.972;2024-02-21T10:37:54;6.77;;;3.83;;
2011;SDS011;1009;51.436;6.972;2024-02-21T10:40:23;4.87;;;3.00;;
2011;SDS011;1009;51.436;6.972;2024-02-21T10:42:51;8.90;;;3.60;;
2011;SDS011;1009;51.436;6.972;2024-02-21T10:45:22;7.13;;;3.50;;
2011;SDS011;1009;51.436;6.972;2024-02-21T10:47:55;6.27;;;3.10;;
2011;SDS011;1009;51.436;6.972;2024-02-21T10:50:24;9.20;;;4.43;;
2011;SDS011;1009;51.436;6.972;2024-02-21T10:52:55;5.43;;;3.27;;
2011;SDS011;1009;51.436;6.972;2024-02-21T10:55:37;4.70;;;3.37;;
2011;SDS011;1009;51.436;6.972;2024-02-21T10:58:07;8.17;;;3.50;;
2011;SDS011;1009;51.436;6.972;2024-02-21T11:00:35;5.43;;;2.90;;
2011;SDS011;1009;51.436;6.972;2024-02-21T11:03:03;4.60;;;3.13;;
2011;SDS011;1009;51.436;6.972;2024-02-21T11:05:31;5.50;;;2.73;;
2011;SDS011;1009;51.436;6.972;2024-02-21T11:07:59;5.27;;;2.60;;
2011;SDS011;1009;51.436;6.972;2024-02-21T11:10:26;5.53;;;3.60;;
2011;SDS011;1009;51.436;6.972;2024-02-21T11:13:04;10.43;;;3.30;;
2011;SDS011;1009;51.436;6.972;2024-02-21T11:15:32;6.03;;;3.67;;
2011;SDS011;1009;51.436;6.972;2024-02-21T11:17:59;13.60;;;2.90;;
2011;SDS011;1009;51.436;6.972;2024-02-21T11:20:31;8.03;;;4.10;;
2011;SDS011;1009;51.436;6.972;2024-02-21T11:22:59;5.67;;;3.27;;
2011;SDS011;1009;51.436;6.972;2024-02-21T11:25:26;4.97;;;3.03;;
2011;SDS011;1009;51.436;6.972;2024-02-21T11:28:00;7.70;;;3.70;;
2011;SDS011;1009;51.436;6.972;2024-02-21T11:30:27;8.03;;;3.50;;
2011;SDS011;1009;51.436;6.972;2024-02-21T11:33:02;4.70;;;3.63;;
2011;SDS011;1009;51.436;6.972;2024-02-21T11:35:33;7.00;;;3.20;;
2011;SDS011;1009;51.436;6.972;2024-02-21T11:38:10;5.50;;;3.20;;
2011;SDS011;1009;51.436;6.972;2024-02-21T11:40:39;5.30;;;3.47;;
2011;SDS011;1009;51.436;6.972;2024-02-21T11:43:08;4.97;;;3.07;;
2011;SDS011;1009;51.436;6.972;2024-02-21T11:45:35;6.13;;;4.43;;
2011;SDS011;1009;51.436;6.972;2024-02-21T11:48:03;6.50;;;3.50;;
2011;SDS011;1009;51.436;6.972;2024-02-21T11:50:31;4.90;;;3.80;;
2011;SDS011;1009;51.436;6.972;2024-02-21T11:52:58;6.30;;;2.93;;
2011;SDS011;1009;51.436;6.972;2024-02-21T11:55:24;6.20;;;3.83;;
2011;SDS011;1009;51.436;6.972;2024-02-21T11:57:51;6.53;;;4.67;;
2011;SDS011;1009;51.436;6.972;2024-02-21T12:00:20;5.87;;;3.17;;
2011;SDS011;1009;51.436;6.972;2024-02-21T12:02:49;7.83;;;3.57;;
2011;SDS011;1009;51.436;6.972;2024-02-21T12:05:16;8.70;;;3.10;;
2011;SDS011;1009;51.436;6.972;2024-02-21T12:07:45;7.10;;;3.03;;
2011;SDS011;1009;51.436;6.972;2024-02-21T12:10:12;5.33;;;3.03;;
2011;SDS011;1009;51.436;6.972;2024-02-21T12:12:39;7.73;;;3.50;;
2011;SDS011;1009;51.436;6.972;2024-02-21T12:15:07;5.40;;;2.97;;
2011;SDS011;1009;51.436;6.972;2024-02-21T12:17:35;6.23;;;3.20;;
2011;SDS011;1009;51.436;6.972;2024-02-21T12:20:03;6.77;;;3.47;;
2011;SDS011;1009;51.436;6.972;2024-02-21T12:22:33;4.37;;;3.30;;
2011;SDS011;1009;51.436;6.972;2024-02-21T12:25:03;5.90;;;3.37;;
2011;SDS011;1009;51.436;6.972;2024-02-21T12:27:32;10.63;;;4.70;;
2011;SDS011;1009;51.436;6.972;2024-02-21T12:29:59;7.40;;;2.63;;
2011;SDS011;1009;51.436;6.972;2024-02-21T12:32:26;6.03;;;2.93;;
2011;SDS011;1009;51.436;6.972;2024-02-21T12:34:54;11.53;;;3.67;;
2011;SDS011;1009;51.436;6.972;2024-02-21T12:37:21;6.13;;;3.33;;
2011;SDS011;1009;51.436;6.972;2024-02-21T12:39:48;6.10;;;3.30;;
2011;SDS011;1009;51.436;6.972;2024-02-21T12:42:15;7.27;;;3.20;;
2011;SDS011;1009;51.436;6.972;2024-02-21T12:44:42;6.17;;;3.00;;
2011;SDS011;1009;51.436;6.972;2024-02-21T12:47:09;5.70;;;2.87;;
2011;SDS011;1009;51.436;6.972;2024-02-21T12:49:39;7.30;;;3.33;;
2011;SDS011;1009;51.436;6.972;2024-02-21T12:52:07;7.43;;;2.50;;
2011;SDS011;1009;51.436;6.972;2024-02-21T12:54:34;2.70;;;2.00;;
2011;SDS011;1009;51.436;6.972;2024-02-21T12:57:01;7.40;;;2.47;;
2011;SDS011;1009;51.436;6.972;2024-02-21T12:59:28;3.60;;;1.93;;
2011;SDS011;1009;51.436;6.972;2024-02-21T13:01:55;5.70;;;2.10;;
2011;SDS011;1009;51.436;6.972;2024-02-21T13:04:22;10.27;;;3.47;;
2011;SDS011;1009;51.436;6.972;2024-02-21T13:06:49;6.63;;;2.63;;
2011;SDS011;1009;51.436;6.972;2024-02-21T13:09:17;11.57;;;3.00;;
2011;SDS011;1009;51.436;6.972;2024-02-21T13:11:45;5.87;;;2.47;;
2011;SDS011;1009;51.436;6.972;2024-02-21T13:14:11;3.97;;;2.13;;
2011;SDS011;1009;51.436;6.972;2024-02-21T13:16:38;5.10;;;2.37;;
2011;SDS011;1009;51.436;6.972;2024-02-21T13:19:05;5.93;;;1.90;;
2011;SDS011;1009;51.436;6.972;2024-02-21T13:21:33;7.00;;;2.70;;
2011;SDS011;1009;51.436;6.972;2024-02-21T13:23:59;6.47;;;2.60;;
2011;SDS011;1009;51.436;6.972;2024-02-21T13:26:27;7.43;;;2.80;;
2011;SDS011;1009;51.436;6.972;2024-02-21T13:28:54;5.53;;;2.80;;
2011;SDS011;1009;51.436;6.972;2024-02-21T13:31:21;9.23;;;2.60;;
2011;SDS011;1009;51.436;6.972;2024-02-21T13:33:48;14.20;;;2.67;;
2011;SDS011;1009;51.436;6.972;2024-02-21T13:36:14;5.90;;;2.53;;
2011;SDS011;1009;51.436;6.972;2024-02-21T13:38:41;3.90;;;2.30;;
2011;SDS011;1009;51.436;6.972;2024-02-21T13:41:08;7.83;;;1.93;;
2011;SDS011;1009;51.436;6.972;2024-02-21T13:43:36;5.57;;;2.73;;
2011;SDS011;1009;51.436;6.972;2024-02-21T13:46:03;9.10;;;2.43;;
2011;SDS011;1009;51.436;6.972;2024-02-21T13:48:34;5.13;;;2.87;;
2011;SDS011;1009;51.436;6.972;2024-02-21T13:51:01;7.30;;;2.60;;
2011;SDS011;1009;51.436;6.972;2024-02-21T13:53:28;10.50;;;2.47;;
2011;SDS011;1009;51.436;6.972;2024-02-21T13:55:55;4.20;;;2.77;;
2011;SDS011;1009;51.436;6.972;2024-02-21T13:58:22;6.67;;;2.33;;
2011;SDS011;1009;51.436;6.972;2024-02-21T14:00:50;5.17;;;2.40;;
2011;SDS011;1009;51.436;6.972;2024-02-21T14:03:17;5.23;;;2.87;;
2011;SDS011;1009;51.436;6.972;2024-02-21T14:05:45;6.73;;;2.50;;
2011;SDS011;1009;51.436;6.972;2024-02-21T14:08:13;5.40;;;2.30;;
2011;SDS011;1009;51.436;6.972;2024-02-21T14:10:40;5.70;;;2.00;;
2011;SDS011;1009;51.436;6.972;2024-02-21T14:13:06;8.10;;;2.77;;
2011;SDS011;1009;51.436;6.972;2024-02-21T14:15:33;4.90;;;2.60;;
2011;SDS011;1009;51.436;6.972;2024-02-21T14:18:03;8.30;;;2.57;;
2011;SDS011;1009;51.436;6.972;2024-02-21T14:20:33;8.00;;;2.77;;
2011;SDS011;1009;51.436;6.972;2024-02-21T14:23:00;5.97;;;2.67;;
2011;SDS011;1009;51.436;6.972;2024-02-21T14:25:27;3.33;;;2.13;;
2011;SDS011;1009;51.436;6.972;2024-02-21T14:27:54;6.50;;;2.13;;
2011;SDS011;1009;51.436;6.972;2024-02-21T14:30:21;8.23;;;2.67;;
2011;SDS011;1009;51.436;6.972;2024-02-21T14:32:47;5.97;;;2.43;;
2011;SDS011;1009;51.436;6.972;2024-02-21T14:35:17;3.87;;;2.20;;
2011;SDS011;1009;51.436;6.972;2024-02-21T14:37:44;7.73;;;2.40;;
2011;SDS011;1009;51.436;6.972;2024-02-21T14:40:13;5.70;;;2.33;;
2011;SDS011;1009;51.436;6.972;2024-02-21T14:42:40;9.43;;;2.60;;
2011;SDS011;1009;51.436;6.972;2024-02-21T14:45:08;8.47;;;3.13;;
2011;SDS011;1009;51.436;6.972;2024-02-21T14:47:35;5.43;;;3.07;;
2011;SDS011;1009;51.436;6.972;2024-02-21T14:50:02;5.20;;;2.43;;
2011;SDS011;1009;51.436;6.972;2024-02-21T14:52:31;7.90;;;3.07;;
2011;SDS011;1009;51.436;6.972;2024-02-21T14:54:57;5.87;;;2.50;;
2011;SDS011;1009;51.436;6.972;2024-02-21T14:57:24;4.43;;;2.27;;
2011;SDS011;1009;51.436;6.972;2024-02-21T14:59:51;6.03;;;2.80;;
2011;SDS011;1009;51.436;6.972;2024-02-21T15:02:21;4.17;;;2.20;;
2011;SDS011;1009;51.436;6.972;2024-02-21T15:04:48;6.60;;;2.23;;
2011;SDS011;1009;51.436;6.972;2024-02-21T15:07:16;7.63;;;2.87;;
2011;SDS011;1009;51.436;6.972;2024-02-21T15:09:45;10.93;;;3.60;;